createdAt,value
2022-11-16T00:01:16.010Z,69.40
2022-11-16T00:06:57.376Z,87.90
2022-11-16T00:09:47.862Z,101.90
2022-11-16T00:12:38.735Z,129.10
2022-11-16T00:15:27.824Z,150.20
2022-11-16T00:20:54.895Z,112.40
2022-11-16T00:23:46.795Z,97.10
2022-11-16T00:26:42.623Z,130.30
2022-11-16T00:29:39.847Z,116.70
2022-11-16T00:32:33.745Z,115.90
2022-11-16T00:35:26.038Z,99.00
2022-11-16T00:41:05.390Z,155.70
2022-11-16T00:43:56.070Z,172.10
2022-11-16T00:46:47.793Z,144.90
2022-11-16T00:49:39.630Z,167.30
2022-11-16T00:52:31.492Z,153.30
2022-11-16T00:55:28.588Z,118.20
2022-11-16T01:00:49.862Z,167.90
2022-11-16T01:03:47.841Z,152.80
2022-11-16T01:06:38.873Z,152.40
2022-11-16T01:09:30.835Z,110.80
2022-11-16T01:12:22.826Z,135.70
2022-11-16T01:18:06.670Z,138.60
2022-11-16T01:21:05.455Z,150.80
2022-11-16T01:23:57.585Z,150.30
2022-11-16T01:26:49.806Z,174.50
2022-11-16T01:29:40.161Z,173.70
2022-11-16T01:32:32.740Z,170.00
2022-11-16T01:38:17.175Z,151.30
2022-11-16T01:41:04.810Z,98.70
2022-11-16T01:43:56.757Z,129.20
2022-11-16T01:46:53.127Z,122.70
2022-11-16T01:49:48.479Z,116.70
2022-11-16T01:52:47.957Z,124.30
2022-11-16T01:55:40.438Z,89.30
2022-11-16T01:58:55.771Z,115.70
2022-11-16T02:01:51.961Z,85.20
2022-11-16T02:04:39.821Z,113.50
2022-11-16T02:08:18.810Z,126.70
2022-11-16T02:11:06.211Z,83.80
2022-11-16T02:14:12.361Z,113.30
2022-11-16T02:17:18.346Z,107.40
2022-11-16T02:20:09.512Z,72.00
2022-11-16T02:23:16.244Z,94.30
2022-11-16T02:26:15.362Z,99.30
2022-11-16T02:29:14.250Z,67.20
2022-11-16T02:32:14.022Z,82.40
2022-11-16T02:35:06.680Z,74.30
2022-11-16T02:37:56.489Z,82.30
2022-11-16T02:40:46.583Z,78.80
2022-11-16T02:43:38.312Z,70.00
2022-11-16T02:46:30.294Z,80.80
2022-11-16T02:49:18.493Z,104.50
2022-11-16T02:52:05.760Z,78.10
2022-11-16T02:54:52.821Z,93.00
2022-11-16T02:57:40.097Z,80.90
2022-11-16T03:00:35.167Z,74.50
2022-11-16T03:03:25.902Z,73.90
2022-11-16T03:06:15.790Z,77.30
2022-11-16T03:09:08.720Z,94.90
2022-11-16T03:12:00.482Z,76.40
2022-11-16T03:14:52.801Z,75.80
2022-11-16T03:17:49.193Z,87.10
2022-11-16T03:20:38.103Z,92.20
2022-11-16T03:23:25.259Z,91.80
2022-11-16T03:26:14.634Z,76.50
2022-11-16T03:29:08.448Z,104.00
2022-11-16T03:31:58.872Z,97.80
2022-11-16T03:34:52.181Z,75.40
2022-11-16T03:37:40.555Z,84.90
2022-11-16T03:40:32.014Z,65.70
2022-11-16T03:43:20.621Z,93.10
2022-11-16T03:46:07.844Z,85.10
2022-11-16T03:48:58.905Z,63.80
2022-11-16T03:51:48.463Z,79.70
2022-11-16T03:54:35.428Z,76.10
2022-11-16T03:57:23.317Z,69.10
2022-11-16T04:00:13.521Z,87.30
2022-11-16T04:03:00.460Z,67.10
2022-11-16T04:06:06.686Z,77.40
2022-11-16T04:09:12.559Z,81.10
2022-11-16T04:12:18.356Z,80.80
2022-11-16T04:15:27.481Z,74.50
2022-11-16T04:18:33.676Z,66.40
2022-11-16T04:21:44.485Z,76.20
2022-11-16T04:24:34.902Z,76.20
2022-11-16T04:27:44.412Z,75.00
2022-11-16T04:30:51.438Z,71.70
2022-11-16T04:33:58.122Z,72.10
2022-11-16T04:37:03.930Z,74.40
2022-11-16T04:39:51.705Z,87.00
2022-11-16T04:42:39.507Z,90.50
2022-11-16T04:45:53.017Z,74.20
2022-11-16T04:48:41.909Z,63.20
2022-11-16T04:51:29.578Z,65.80
2022-11-16T04:54:17.969Z,95.70
2022-11-16T04:57:05.792Z,53.10
2022-11-16T04:59:52.466Z,81.50
2022-11-16T05:02:39.758Z,72.90
2022-11-16T05:05:27.147Z,89.60
2022-11-16T05:08:14.031Z,96.60
2022-11-16T05:11:01.654Z,88.90
2022-11-16T05:13:48.530Z,82.60
2022-11-16T05:16:35.385Z,100.30
2022-11-16T05:19:41.885Z,100.60
2022-11-16T05:22:28.704Z,69.20
2022-11-16T05:25:16.926Z,110.10
2022-11-16T05:28:03.923Z,103.10
2022-11-16T05:30:52.236Z,116.40
2022-11-16T05:33:42.351Z,88.00
2022-11-16T05:36:30.209Z,115.60
2022-11-16T05:39:17.043Z,76.50
2022-11-16T05:42:04.063Z,107.00
2022-11-16T05:44:51.239Z,109.80
2022-11-16T05:47:38.767Z,93.30
2022-11-16T05:50:26.273Z,97.30
2022-11-16T05:53:24.386Z,72.60
2022-11-16T05:56:12.181Z,78.00
2022-11-16T05:59:00.110Z,79.20
2022-11-16T06:01:47.238Z,81.50
2022-11-16T06:04:34.229Z,83.90
2022-11-16T06:07:23.343Z,59.50
2022-11-16T06:10:10.359Z,62.70
2022-11-16T06:12:57.994Z,75.30
2022-11-16T06:15:51.514Z,77.00
2022-11-16T06:18:41.520Z,84.90
2022-11-16T06:21:28.617Z,82.60
2022-11-16T06:24:16.410Z,89.50
2022-11-16T06:27:03.853Z,61.30
2022-11-16T06:29:52.614Z,71.10
2022-11-16T06:32:40.099Z,88.00
2022-11-16T06:35:27.931Z,94.40
2022-11-16T06:38:18.642Z,113.10
2022-11-16T06:41:06.725Z,92.70
2022-11-16T06:43:58.067Z,113.40
2022-11-16T06:46:50.028Z,78.40
2022-11-16T06:49:39.917Z,76.20
2022-11-16T06:55:18.680Z,65.50
2022-11-16T06:58:07.916Z,88.50
2022-11-16T07:00:54.760Z,81.90
2022-11-16T07:03:41.711Z,75.00
2022-11-16T07:06:32.007Z,70.80
2022-11-16T07:09:19.522Z,85.40
2022-11-16T07:12:07.123Z,87.30
2022-11-16T07:14:56.364Z,72.40
2022-11-16T07:17:43.371Z,101.30
2022-11-16T07:20:30.348Z,82.90
2022-11-16T07:23:17.911Z,81.40
2022-11-16T07:26:06.315Z,71.70
2022-11-16T07:29:00.035Z,99.60
2022-11-16T07:31:47.283Z,143.70
2022-11-16T07:34:52.088Z,107.70
2022-11-16T07:37:39.095Z,74.30
2022-11-16T07:40:26.333Z,92.90
2022-11-16T07:43:13.944Z,80.50
2022-11-16T07:46:45.500Z,76.00
2022-11-16T07:49:28.494Z,110.60
2022-11-16T07:52:19.883Z,112.40
2022-11-16T07:55:13.580Z,95.60
2022-11-16T07:58:01.274Z,93.20
2022-11-16T08:00:48.344Z,77.80
2022-11-16T08:03:36.092Z,87.10
2022-11-16T08:06:26.238Z,93.10
2022-11-16T08:09:14.218Z,78.70
2022-11-16T08:12:01.353Z,95.20
2022-11-16T08:14:50.679Z,84.10
2022-11-16T08:17:37.514Z,84.30
2022-11-16T08:20:25.359Z,93.10
2022-11-16T08:23:12.631Z,84.60
2022-11-16T08:25:59.996Z,82.50
2022-11-16T08:28:51.473Z,65.60
2022-11-16T08:31:39.269Z,85.50
2022-11-16T08:34:33.535Z,84.70
2022-11-16T08:37:21.061Z,78.20
2022-11-16T08:40:08.497Z,113.60
2022-11-16T08:42:58.091Z,95.60
2022-11-16T08:45:47.560Z,93.40
2022-11-16T08:48:35.813Z,94.50
2022-11-16T08:51:23.125Z,80.80
2022-11-16T08:54:15.182Z,77.90
2022-11-16T08:57:02.317Z,74.40
2022-11-16T08:59:50.831Z,89.00
2022-11-16T09:02:37.851Z,71.10
2022-11-16T09:05:24.819Z,47.70
2022-11-16T09:08:11.743Z,57.10
2022-11-16T09:10:58.903Z,73.10
2022-11-16T09:13:46.532Z,51.70
2022-11-16T09:16:33.603Z,64.20
2022-11-16T09:19:21.290Z,61.70
2022-11-16T09:22:08.773Z,68.50
2022-11-16T09:24:55.689Z,79.20
2022-11-16T09:27:43.018Z,73.80
2022-11-16T09:30:29.911Z,60.40
2022-11-16T09:33:16.723Z,69.00
2022-11-16T09:36:07.501Z,53.90
2022-11-16T09:39:25.756Z,75.30
2022-11-16T09:42:20.694Z,73.50
2022-11-16T09:45:14.876Z,56.50
2022-11-16T09:48:04.101Z,67.80
2022-11-16T09:50:53.305Z,49.30
2022-11-16T09:53:42.776Z,68.80
2022-11-16T09:56:31.864Z,62.50
2022-11-16T09:59:24.943Z,51.50
2022-11-16T10:02:11.776Z,61.30
2022-11-16T10:05:02.113Z,73.30
2022-11-16T10:07:50.893Z,60.70
2022-11-16T10:10:45.592Z,67.30
2022-11-16T10:13:35.823Z,70.70
2022-11-16T10:16:36.528Z,64.60
2022-11-16T10:19:49.860Z,65.80
2022-11-16T10:22:49.101Z,84.30
2022-11-16T10:25:42.695Z,110.80
2022-11-16T10:28:41.009Z,54.20
2022-11-16T10:31:38.059Z,97.90
2022-11-16T10:34:27.252Z,111.10
2022-11-16T10:37:14.456Z,116.80
2022-11-16T10:40:02.595Z,96.80
2022-11-16T10:42:54.919Z,124.00
2022-11-16T10:45:52.652Z,123.90
2022-11-16T10:48:41.343Z,100.40
2022-11-16T10:51:28.290Z,71.40
2022-11-16T10:54:15.818Z,51.60
2022-11-16T10:57:14.214Z,93.10
2022-11-16T11:00:02.740Z,75.50
2022-11-16T11:02:49.676Z,71.30
2022-11-16T11:05:36.896Z,99.00
2022-11-16T11:08:25.444Z,84.50
2022-11-16T11:11:38.835Z,80.10
2022-11-16T11:14:27.063Z,100.10
2022-11-16T11:17:17.624Z,86.50
2022-11-16T11:20:17.086Z,54.10
2022-11-16T11:23:06.302Z,35.10
2022-11-16T11:25:54.488Z,15.80
2022-11-16T11:28:46.532Z,18.70
2022-11-16T11:31:42.688Z,9.30
2022-11-16T11:34:30.064Z,14.10
2022-11-16T11:37:18.428Z,11.20
2022-11-16T11:40:25.470Z,11.20
2022-11-16T11:43:21.660Z,6.50
2022-11-16T11:46:23.653Z,12.30
2022-11-16T11:49:13.522Z,11.20
2022-11-16T11:52:03.495Z,7.50
2022-11-16T11:54:52.474Z,9.00
2022-11-16T11:57:41.681Z,8.70
2022-11-16T12:00:35.509Z,6.60
2022-11-16T12:03:31.257Z,7.60
2022-11-16T12:06:27.462Z,6.70
2022-11-16T12:09:16.788Z,9.00
2022-11-16T12:12:18.770Z,7.30
2022-11-16T12:15:08.682Z,5.50
2022-11-16T12:18:06.564Z,4.30
2022-11-16T12:21:08.472Z,7.90
2022-11-16T12:26:56.207Z,7.60
2022-11-16T12:29:55.576Z,7.60
2022-11-16T12:32:42.224Z,6.00
2022-11-16T12:35:32.558Z,6.90
2022-11-16T12:38:38.191Z,4.80
2022-11-16T12:41:25.555Z,5.80
2022-11-16T12:44:15.597Z,4.90
2022-11-16T12:47:08.502Z,4.50
2022-11-16T12:50:15.957Z,3.70
2022-11-16T12:53:21.873Z,3.30
2022-11-16T12:56:09.234Z,5.80
2022-11-16T12:59:02.230Z,7.10
2022-11-16T13:02:08.860Z,4.40
2022-11-16T13:05:05.608Z,5.40
2022-11-16T13:07:54.914Z,5.10
2022-11-16T13:10:45.620Z,4.50
2022-11-16T13:13:37.003Z,4.90
2022-11-16T13:16:25.076Z,4.30
2022-11-16T13:19:13.088Z,5.00
2022-11-16T13:22:06.529Z,3.30
2022-11-16T13:24:59.894Z,6.60
2022-11-16T13:27:53.180Z,5.70
2022-11-16T13:30:51.996Z,5.80
2022-11-16T13:33:50.724Z,4.40
2022-11-16T13:36:40.517Z,4.20
2022-11-16T13:39:46.219Z,4.90
2022-11-16T13:42:35.330Z,4.60
2022-11-16T13:45:22.780Z,6.00
2022-11-16T13:48:20.288Z,7.20
2022-11-16T13:51:09.143Z,5.20
2022-11-16T13:57:21.536Z,7.70
2022-11-16T14:00:10.411Z,5.40
2022-11-16T14:03:18.559Z,4.10
2022-11-16T14:06:06.776Z,3.10
2022-11-16T14:08:59.468Z,2.30
2022-11-16T14:11:51.327Z,4.10
2022-11-16T14:15:04.206Z,3.40
2022-11-16T14:17:59.713Z,2.70
2022-11-16T14:21:07.460Z,4.00
2022-11-16T14:23:59.602Z,3.80
2022-11-16T14:27:04.745Z,3.30
2022-11-16T14:30:02.652Z,3.70
2022-11-16T14:32:55.334Z,2.30
2022-11-16T14:35:42.376Z,1.60
2022-11-16T14:38:37.132Z,3.60
2022-11-16T14:41:28.870Z,3.80
2022-11-16T14:44:19.900Z,4.80
2022-11-16T14:47:21.096Z,3.30
2022-11-16T14:50:19.354Z,5.00
2022-11-16T14:53:14.403Z,4.30
2022-11-16T14:56:12.091Z,3.60
2022-11-16T14:58:59.767Z,3.80
2022-11-16T15:01:53.521Z,5.20
2022-11-16T15:04:41.078Z,5.90
2022-11-16T15:07:29.075Z,2.40
2022-11-16T15:10:18.241Z,6.50
2022-11-16T15:13:04.892Z,6.30
2022-11-16T15:16:14.695Z,6.80
2022-11-16T15:19:02.257Z,6.70
2022-11-16T15:23:32.471Z,7.00
2022-11-16T15:26:24.863Z,6.30
2022-11-16T15:29:16.925Z,3.50
2022-11-16T15:32:14.105Z,9.10
2022-11-16T15:35:05.111Z,6.70
2022-11-16T15:38:04.211Z,3.00
2022-11-16T15:41:05.725Z,6.00
2022-11-16T15:44:15.530Z,5.80
2022-11-16T15:47:03.129Z,8.30
2022-11-16T15:49:55.543Z,6.50
2022-11-16T15:52:43.489Z,8.00
2022-11-16T15:55:33.253Z,6.10
2022-11-16T15:58:27.084Z,9.80
2022-11-16T16:01:15.057Z,12.80
2022-11-16T16:04:07.283Z,8.80
2022-11-16T16:07:00.160Z,8.50
2022-11-16T16:09:47.487Z,6.90
2022-11-16T16:12:59.371Z,11.30
2022-11-16T16:16:10.298Z,5.80
2022-11-16T16:19:03.796Z,6.80
2022-11-16T16:21:55.485Z,6.00
2022-11-16T16:24:47.336Z,6.90
2022-11-16T16:27:40.035Z,9.50
2022-11-16T16:30:28.342Z,6.30
2022-11-16T16:33:21.983Z,6.40
2022-11-16T16:36:11.695Z,5.20
2022-11-16T16:39:03.453Z,9.40
2022-11-16T16:41:55.813Z,12.20
2022-11-16T16:44:47.913Z,8.90
2022-11-16T16:50:31.373Z,6.10
2022-11-16T16:55:08.734Z,8.40
2022-11-16T16:57:56.787Z,9.80
2022-11-16T17:00:42.310Z,7.30
2022-11-16T17:03:27.803Z,7.70
2022-11-16T17:06:18.557Z,8.60
2022-11-16T17:09:08.898Z,11.80
2022-11-16T17:11:54.224Z,14.10
2022-11-16T17:14:50.715Z,13.30
2022-11-16T17:17:42.491Z,8.10
2022-11-16T17:24:14.852Z,7.80
2022-11-16T17:29:45.831Z,8.90
2022-11-16T17:32:39.931Z,10.40
2022-11-16T17:35:30.384Z,4.70
2022-11-16T17:38:20.475Z,9.10
2022-11-16T17:41:06.795Z,4.50
2022-11-16T17:43:52.843Z,4.80
2022-11-16T17:46:38.212Z,4.70
2022-11-16T17:49:23.843Z,7.10
2022-11-16T17:52:09.058Z,3.60
2022-11-16T17:54:54.301Z,4.10
2022-11-16T17:57:45.004Z,7.40
2022-11-16T18:00:35.257Z,4.80
2022-11-16T18:03:28.596Z,3.30
2022-11-16T18:06:20.690Z,7.00
2022-11-16T18:09:12.085Z,5.40
2022-11-16T18:12:02.266Z,3.80
2022-11-16T18:15:21.286Z,4.40
2022-11-16T18:18:04.159Z,5.00
2022-11-16T18:20:54.833Z,3.20
2022-11-16T18:23:45.048Z,4.80
2022-11-16T18:26:30.504Z,7.10
2022-11-16T18:29:21.810Z,4.00
2022-11-16T18:32:07.936Z,3.10
2022-11-16T18:34:58.821Z,3.80
2022-11-16T18:37:49.467Z,5.90
2022-11-16T18:40:41.208Z,2.70
2022-11-16T18:43:33.547Z,2.90
2022-11-16T18:46:29.125Z,3.20
2022-11-16T18:51:10.669Z,4.50
2022-11-16T18:54:26.652Z,5.10
2022-11-16T18:58:51.400Z,4.20
2022-11-16T19:02:07.896Z,7.70
2022-11-16T19:05:01.494Z,2.80
2022-11-16T19:07:53.136Z,4.60
2022-11-16T19:10:45.273Z,6.90
2022-11-16T19:13:37.447Z,3.00
2022-11-16T19:19:24.806Z,2.20
2022-11-16T19:22:43.190Z,2.80
2022-11-16T19:25:35.162Z,3.50
2022-11-16T19:28:26.997Z,6.20
2022-11-16T19:31:23.882Z,2.50
2022-11-16T19:34:15.826Z,2.00
2022-11-16T19:37:08.109Z,2.40
2022-11-16T19:40:00.298Z,4.10
2022-11-16T19:42:52.985Z,3.00
2022-11-16T19:45:39.828Z,3.20
2022-11-16T19:48:32.826Z,8.60
2022-11-16T19:51:25.807Z,4.50
2022-11-16T19:54:17.602Z,2.70
2022-11-16T19:57:09.328Z,3.70
2022-11-16T20:00:01.585Z,5.30
2022-11-16T20:02:57.444Z,3.80
2022-11-16T20:05:49.650Z,3.30
2022-11-16T20:10:08.742Z,3.20
2022-11-16T20:14:12.612Z,2.90
2022-11-16T20:19:57.346Z,3.00
2022-11-16T20:25:42.612Z,3.40
2022-11-16T20:31:14.707Z,6.50
2022-11-16T20:35:19.150Z,3.40
2022-11-16T20:38:06.163Z,3.00
2022-11-16T20:40:57.911Z,6.60
2022-11-16T20:43:50.956Z,3.20
2022-11-16T20:46:44.032Z,6.30
2022-11-16T20:49:36.069Z,3.70
2022-11-16T20:52:27.743Z,4.60
2022-11-16T20:55:19.744Z,3.30
2022-11-16T20:58:11.815Z,3.50
2022-11-16T21:02:35.701Z,3.70
2022-11-16T21:06:38.259Z,3.90
2022-11-16T21:09:50.162Z,3.00
2022-11-16T21:13:00.845Z,4.00
2022-11-16T21:16:01.468Z,5.70
2022-11-16T21:18:55.833Z,6.60
2022-11-16T21:23:36.731Z,5.80
2022-11-16T21:27:27.985Z,4.00
2022-11-16T21:30:20.037Z,5.30
2022-11-16T21:33:11.636Z,3.40
2022-11-16T21:36:08.027Z,6.10
2022-11-16T21:39:00.292Z,2.70
2022-11-16T21:41:47.322Z,4.60
2022-11-16T21:44:42.184Z,3.30
2022-11-16T21:47:34.333Z,3.80
2022-11-16T21:50:33.746Z,4.30
2022-11-16T21:53:37.934Z,4.40
2022-11-16T21:56:29.613Z,5.40
2022-11-16T21:59:21.713Z,5.50
2022-11-16T22:02:14.791Z,3.90
2022-11-16T22:05:29.013Z,3.70
2022-11-16T22:08:20.816Z,4.00
2022-11-16T22:14:17.302Z,4.20
2022-11-16T22:17:10.176Z,4.00
2022-11-16T22:20:02.165Z,5.70
2022-11-16T22:23:32.350Z,3.90
2022-11-16T22:26:23.010Z,3.70
2022-11-16T22:29:14.655Z,5.50
2022-11-16T22:32:06.854Z,3.40
2022-11-16T22:34:58.558Z,3.60
2022-11-16T22:38:30.626Z,3.70
2022-11-16T22:41:22.509Z,3.50
2022-11-16T22:44:14.441Z,3.60
2022-11-16T22:47:06.082Z,3.10
2022-11-16T22:49:57.962Z,3.50
2022-11-16T22:54:01.410Z,5.70
2022-11-16T22:56:54.501Z,3.80
2022-11-16T22:59:47.159Z,3.30
2022-11-16T23:02:34.230Z,4.50
2022-11-16T23:05:26.111Z,3.50
2022-11-16T23:08:27.875Z,5.10
2022-11-16T23:11:38.090Z,3.70
2022-11-16T23:14:48.888Z,2.80
2022-11-16T23:17:41.089Z,7.30
2022-11-16T23:20:47.276Z,4.50
2022-11-16T23:23:58.524Z,2.90
2022-11-16T23:27:09.723Z,2.20
2022-11-16T23:31:25.003Z,4.60
2022-11-16T23:37:08.843Z,6.20
2022-11-16T23:39:55.720Z,3.10
2022-11-16T23:43:06.013Z,4.30
2022-11-16T23:45:58.304Z,6.40
2022-11-16T23:48:45.246Z,1.60
2022-11-16T23:51:37.109Z,1.20
2022-11-16T23:54:29.144Z,2.40
2022-11-16T23:57:20.845Z,1.90
